Archivos mensuales: marzo 2018

Usan aeronave privada ante la falta de caminos

ZP-BKP

La aeronave llevará los víveres desde el aeropuerto de Fuerte Olimpo, y el costo por el transporte será solventado por los dueños del establecimiento ganadero La Morocha, informó Mons. Gabriel Escobar, obispo del Vicariato Apostólico del Chaco.

En la escuela, donde asisten hijos de peones de estancia e indígenas de la zona, es regenteada desde hace más de 30 años por el referido Vicariato. Un tractor con acoplado que salió de la escuela tardó un día para recorrer el tramo de menos de 100 km hasta Fuerte Olimpo, debido a la pésima situación del camino, por lo que un eventual regreso con cargas sería complicado.

ZP-BKP

“Es entonces cuando aparece este gesto humanitario del ganadero al ceder la aeronave”, socializó el religioso.

El avión tiene una capacidad de transportar entre 500 y 600 kilos, y deberá realizar cinco viajes en total para llevar los víveres a los estudiantes.

* Con información de abc.com.py

Boeing 747-8 de Lufthansa alterna nuevamente a ASU

D-ABYL Lufthansa

Por Alberto González

El desvío de su ruta original se debió al clima adverso reinante sobre el Gran Buenos Aires, que penalizó los arribos por unas horas en el aeropuerto internacional Ministro Pistarini de la localidad de Ezeiza, que sirve a la capital argentina, de acuerdo al METAR en el momento en el que el vuelo llegaba a destino la visibilidad y condiciones generales no les permitieron siquiera intentar realizar un intento de aterrizaje.

METAR UTC DATE/TIMEMETAR UTC DATE/TIME

  • SAEZ 181500Z 23016G28KT 9999 -RA BKN022 OVC070 19/15 Q1000 2018-03-18 15:00:00
  • SAEZ 181400Z 23015G25KT 9999 OVC010 19/17 Q1000 2018-03-18 14:00:00
  • SAEZ 181300Z 23012KT 9999 OVC010 22/21 Q0997 2018-03-18 13:00:00
  • SAEZ 181147Z 30008KT 3000 -TSRA BKN005 BKN010 FEW050CB 23/23 Q0997 2018-03-18 11:47:00
  • SAEZ 181109Z 31012KT 3000 -TSRA BKN004 OVC034 FEW040CB 23/23 Q0996 2018-03-18 11:09:00
  • SAEZ 181032Z 35011G27KT 0500 R11/0300N +TSRA OVC003 FEW040CB 23/22 Q0996 2018-03-18 10:32:00
  • SAEZ 181023Z 32005KT 1800 R11/1000N TSRA BKN003 OVC028 FEW050CB 22/21 Q0996 2018-03-18 10:23:00

Alrededor de las 09:40 hs. de esta mañana (12:40 UTC), la aeronave descendió por la pista 02 del aeropuerto Silvio Pettirossi. Los pasajeros permanecieron a bordo mientras el avión esperaba para partir nuevamente, lo cual sucedió finalmente a las 10:50 (13:50 UTC) llegando a EZE a las 15:25 (UTC) aproximadamente.

D-ABYL Lufthansa

D-ABYL de Lufthansa ya aterrizado en ASU luego de su “vuelta” por el gran Buenos Aires.

Nuestros amigos de Royal FBO Service fueron los contratados por “Lufthy” para asistir sus aviones en Paraguay en cada visita.

Detalles de la aeronave de poco más de 4 años de edad.

Aircraft: Boeing 747-830
Airline: Lufthansa
Serial #: 37836
Registration: D-ABYL
Airline: Lufthansa
Delivery Date: 2014-02-06
Engine Model: GEnx-2B67

Abajo las fotos de esta inesperada visita, nuestros spotters realizaron las capturas con los medios que disponían, créditos y Cortesía Raquel Barreto – Dinac, Juan Pablo Medina y Francisco Mendoza.

Esperamos tener un par de alternos más durante este año de la reina así que tengan siempre listas sus cámaras 🙂